Albayzin — 5BLJ4 — position and weather

sailwx.info

Track history (hours):
 
Tides and Currents Weather Stations Pressure Air Temp Water Temp Dewpoint Dewpoint Depression Visibility Wind Speed Wind Dir Waves Ship Positions

Albayzin

Last reported at 2018-Feb-24 18:10 UTC. Time now 2018-Feb-25 04:12 UTC.
Position N 28°09' W 014°02'.

Length 186 m; draft 6.4 m.

Type: Passenger vessel. MMSI: 210300000.

Date/timePositionNaut miles runAvg speedWind from/ knotsBaromVisibWave heightAir tempDewpointWater temp
2018-Feb-24 18:10N 28°09' W 014°02'320.5
2018-Feb-24 18:00N 28°07' W 014°06'1520.1
2018-Feb-24 17:16N 27°60' W 014°20'1119.4
2018-Feb-24 16:41N 28°01' W 014°33'319.3
2018-Feb-24 16:31N 28°02' W 014°37'1019.6
2018-Feb-24 16:00N 28°03' W 014°48'1019.6
2018-Feb-24 15:31N 28°04' W 014°59'1019.5
2018-Feb-24 15:00N 28°05' W 015°10'1019.7
2018-Feb-24 14:30N 28°06' W 015°21'5 7.3
2018-Feb-24 13:53N 28°09' W 015°25'0 0.0
2018-Feb-24 13:23N 28°09' W 015°25'0 0.0
2018-Feb-24 13:00N 28°09' W 015°25'0 0.0
2018-Feb-24 12:30N 28°09' W 015°25'0 0.0
2018-Feb-24 12:00N 28°09' W 015°25'0 0.0
2018-Feb-24 11:30N 28°09' W 015°25'0 0.0
2018-Feb-24 11:00N 28°09' W 015°25'0 0.0
2018-Feb-24 10:30N 28°09' W 015°25'0 0.0
2018-Feb-24 10:00N 28°09' W 015°25'0 0.0
2018-Feb-24 09:29N 28°09' W 015°25'0 0.0
2018-Feb-24 09:00N 28°09' W 015°25'0 0.0
2018-Feb-24 08:28N 28°09' W 015°25'0 0.1
2018-Feb-24 08:00N 28°09' W 015°25'2 4.5
2018-Feb-24 07:30N 28°07' W 015°23'917.7
2018-Feb-24 07:00N 28°16' W 015°24'816.0
2018-Feb-24 06:30N 28°23' W 015°28'612.4
2018-Feb-24 05:59N 28°29' W 015°31'612.5
2018-Feb-24 05:31N 28°34' W 015°34'611.8
2018-Feb-24 05:00N 28°34' W 015°41'612.3
2018-Feb-24 04:30N 28°29' W 015°45'612.2
2018-Feb-24 04:00N 28°24' W 015°50'612.3
2018-Feb-24 03:30N 28°19' W 015°54'611.2
2018-Feb-24 02:56N 28°19' W 016°01'612.3
2018-Feb-24 02:29N 28°22' W 016°06'10 2.5
2018-Feb-23 22:34N 28°28' W 016°15'0 6.7
2018-Feb-23 22:30N 28°29' W 016°14'612.7
2018-Feb-23 22:00N 28°30' W 016°07'5 0.2
2018-Feb-23 01:12N 28°34' W 016°05'212.3
2018-Feb-23 01:01N 28°32' W 016°05'612.1
2018-Feb-23 00:30N 28°29' W 016°11'3 6.3
2018-Feb-23 00:00N 28°29' W 016°15'0 0.0
2018-Feb-22 23:30N 28°29' W 016°15'0 0.0
2018-Feb-22 23:00N 28°29' W 016°15'0 0.0
2018-Feb-22 22:30N 28°29' W 016°15'0 0.0
2018-Feb-22 22:00N 28°29' W 016°15'0 0.0
2018-Feb-22 21:30N 28°29' W 016°15'0 0.0
2018-Feb-22 21:00N 28°29' W 016°15'0 0.0
2018-Feb-22 20:30N 28°29' W 016°15'0 0.0
2018-Feb-22 20:00N 28°29' W 016°15'0 0.0
2018-Feb-22 19:30N 28°29' W 016°15'0 0.0
2018-Feb-22 19:00N 28°29' W 016°15'0 0.0
2018-Feb-22 18:30N 28°29' W 016°15'0 0.0
2018-Feb-22 18:00N 28°29' W 016°15'0 0.0
2018-Feb-22 17:30N 28°29' W 016°15'0 0.0
2018-Feb-22 17:00N 28°29' W 016°15'1 2.0
2018-Feb-22 16:30N 28°29' W 016°14'917.4
2018-Feb-22 16:00N 28°26' W 016°04'1020.0
2018-Feb-22 15:30N 28°22' W 015°54'1019.7
2018-Feb-22 15:01N 28°19' W 015°43'1019.7
2018-Feb-22 14:30N 28°15' W 015°33'1019.6
2018-Feb-22 14:00N 28°12' W 015°22'510.0
2018-Feb-22 13:30N 28°08' W 015°25'1 2.0
2018-Feb-22 13:00N 28°09' W 015°25'0 0.0
2018-Feb-22 12:30N 28°09' W 015°25'0 0.0
2018-Feb-22 12:00N 28°09' W 015°25'0 0.0
2018-Feb-22 11:30N 28°09' W 015°25'0 0.0
2018-Feb-22 11:00N 28°09' W 015°25'0 0.0
2018-Feb-22 10:30N 28°09' W 015°25'0 0.0
2018-Feb-22 10:00N 28°09' W 015°25'0 0.0
2018-Feb-22 09:30N 28°09' W 015°25'0 0.0
2018-Feb-22 09:00N 28°09' W 015°25'0 0.0
2018-Feb-22 08:30N 28°09' W 015°25'0 0.6
2018-Feb-22 08:00N 28°08' W 015°25'3 5.5
2018-Feb-22 07:30N 28°07' W 015°22'816.1
2018-Feb-22 07:00N 28°11' W 015°14'919.1
2018-Feb-22 06:30N 28°16' W 015°05'1019.4
2018-Feb-22 06:00N 28°21' W 014°55'1019.2
2018-Feb-22 05:30N 28°26' W 014°46'1019.4
2018-Feb-22 04:58N 28°32' W 014°36'6312.4
2018-Feb-21 23:54N 28°58' W 013°32'0 0.0
2018-Feb-21 23:22N 28°58' W 013°32'0 0.0
2018-Feb-21 22:58N 28°58' W 013°32'1 2.5
2018-Feb-21 22:28N 28°57' W 013°31'716.3
2018-Feb-21 22:01N 29°01' W 013°25'  
2018-Feb-18 03:50N 29°06' W 013°21'919.3
2018-Feb-18 03:24N 28°60' W 013°27'5 6.4
2018-Feb-18 02:41N 28°58' W 013°32'0 0.0
2018-Feb-18 02:29N 28°58' W 013°32'0 0.0
2018-Feb-18 02:00N 28°58' W 013°32'0 0.0
2018-Feb-18 01:30N 28°58' W 013°32'0 0.9
2018-Feb-18 00:59N 28°58' W 013°32'714.1
2018-Feb-18 00:28N 28°51' W 013°36'49 7.8
2018-Feb-17 18:15N 28°09' W 014°03'2718.7
2018-Feb-17 16:49N 28°00' W 014°32'619.5
2018-Feb-17 16:30N 28°01' W 014°39'1019.4
2018-Feb-17 16:00N 28°02' W 014°50'1019.4
2018-Feb-17 15:31N 28°03' W 015°00'1019.6
2018-Feb-17 15:01N 28°05' W 015°11'1019.6
2018-Feb-17 14:30N 28°07' W 015°22'3 5.8
2018-Feb-17 13:58N 28°09' W 015°25'0 0.0
2018-Feb-17 13:28N 28°09' W 015°25'0 0.0
2018-Feb-17 12:58N 28°09' W 015°25'0 0.0
2018-Feb-17 12:25N 28°09' W 015°25'0 0.0
2018-Feb-17 11:58N 28°09' W 015°25'0 0.0
2018-Feb-17 11:28N 28°09' W 015°25'0 0.0
2018-Feb-17 10:57N 28°09' W 015°25'0 0.0
2018-Feb-17 10:30N 28°09' W 015°25'0 0.0
2018-Feb-17 10:00N 28°09' W 015°25'0 0.0
2018-Feb-17 09:30N 28°09' W 015°25'0 0.0
2018-Feb-17 09:00N 28°09' W 015°25'0 0.0
2018-Feb-17 08:30N 28°09' W 015°25'0 0.1
2018-Feb-17 08:00N 28°09' W 015°25'2 4.1
2018-Feb-17 07:30N 28°07' W 015°24'3 5.7
2018-Feb-17 07:00N 28°09' W 015°22'611.1
2018-Feb-17 06:30N 28°14' W 015°25'611.7
2018-Feb-17 06:00N 28°18' W 015°30'611.8
2018-Feb-17 05:30N 28°22' W 015°35'611.2
2018-Feb-17 05:00N 28°26' W 015°39'510.2
2018-Feb-17 04:29N 28°26' W 015°45'4 8.5
2018-Feb-17 04:00N 28°25' W 015°50'510.2
2018-Feb-17 03:30N 28°21' W 015°53'510.2
2018-Feb-17 02:59N 28°17' W 015°57'4 7.4
2018-Feb-17 02:30N 28°17' W 016°01'510.9
2018-Feb-17 02:00N 28°21' W 016°06'511.0
2018-Feb-17 01:30N 28°24' W 016°10'510.5
2018-Feb-17 01:00N 28°29' W 016°14'1 1.4
2018-Feb-17 00:29N 28°29' W 016°15'0 0.0
2018-Feb-16 23:56N 28°29' W 016°15'0 0.0
2018-Feb-16 23:29N 28°29' W 016°15'0 0.0
2018-Feb-16 23:00N 28°29' W 016°15'0 0.0
2018-Feb-16 22:30N 28°29' W 016°15'0 0.2
2018-Feb-16 22:00N 28°28' W 016°15'510.5
2018-Feb-16 21:30N 28°29' W 016°09'916.4
2018-Feb-16 20:58N 28°38' W 016°07'8 0.4
2018-Feb-16 02:05N 28°41' W 016°16'112.5
2018-Feb-16 02:01N 28°41' W 016°15'611.7
2018-Feb-16 01:31N 28°39' W 016°08'612.1
2018-Feb-16 01:01N 28°34' W 016°04'612.0
2018-Feb-16 00:31N 28°29' W 016°08'510.7
2018-Feb-16 00:01N 28°29' W 016°14'0 0.4
2018-Feb-15 23:29N 28°29' W 016°15'0 0.0
2018-Feb-15 22:59N 28°29' W 016°15'0 0.0
2018-Feb-15 22:29N 28°29' W 016°15'0 0.0
2018-Feb-15 21:59N 28°29' W 016°15'0 0.0
2018-Feb-15 21:29N 28°29' W 016°15'0 0.0
2018-Feb-15 20:59N 28°29' W 016°15'0 0.0
2018-Feb-15 20:29N 28°29' W 016°15'0 0.0
2018-Feb-15 19:59N 28°29' W 016°15'0 0.0
2018-Feb-15 19:30N 28°29' W 016°15'0 0.0
2018-Feb-15 19:00N 28°29' W 016°15'0 0.0
2018-Feb-15 18:30N 28°29' W 016°15'0 0.0
2018-Feb-15 18:00N 28°29' W 016°15'0 0.0
2018-Feb-15 17:30N 28°29' W 016°15'0 0.0
2018-Feb-15 17:00N 28°29' W 016°15'0 0.2
2018-Feb-15 16:30N 28°28' W 016°15'611.6
2018-Feb-15 16:01N 28°27' W 016°08'1020.1
2018-Feb-15 15:31N 28°23' W 015°58'1020.0
2018-Feb-15 15:00N 28°19' W 015°47'1019.8
2018-Feb-15 14:30N 28°16' W 015°36'1019.6
2018-Feb-15 14:00N 28°13' W 015°26'612.2
2018-Feb-15 13:30N 28°07' W 015°25'2 3.2
2018-Feb-15 13:00N 28°09' W 015°25'0 0.0
2018-Feb-15 12:30N 28°09' W 015°25'0 0.0
2018-Feb-15 11:59N 28°09' W 015°25'0 0.0
2018-Feb-15 11:30N 28°09' W 015°25'0 0.0
2018-Feb-15 11:00N 28°09' W 015°25'0 0.0
2018-Feb-15 10:27N 28°09' W 015°25'0 0.0
2018-Feb-15 10:00N 28°09' W 015°25'0 0.0
2018-Feb-15 09:30N 28°09' W 015°25'0 0.0
2018-Feb-15 09:00N 28°09' W 015°25'0 0.0
2018-Feb-15 08:30N 28°09' W 015°25'0 0.0
2018-Feb-15 08:00N 28°09' W 015°25'2 3.9
2018-Feb-15 07:30N 28°07' W 015°24'918.2
2018-Feb-15 07:00N 28°11' W 015°15'1020.2
2018-Feb-15 06:30N 28°16' W 015°05'1020.3
2018-Feb-15 06:00N 28°22' W 014°55'1020.3
2018-Feb-15 05:31N 28°27' W 014°45'1020.2
2018-Feb-15 05:00N 28°35' W 014°38'1020.2
2018-Feb-15 04:30N 28°43' W 014°31'1020.2
2018-Feb-15 04:00N 28°51' W 014°24'917.8
2018-Feb-15 03:31N 28°54' W 014°14'1020.1
2018-Feb-15 03:01N 28°53' W 014°03'1019.7
2018-Feb-15 02:30N 28°49' W 013°52'1020.6
2018-Feb-15 02:00N 28°50' W 013°41'1019.6
2018-Feb-15 01:30N 28°56' W 013°33'2 3.6
2018-Feb-15 00:58N 28°58' W 013°32'0 0.0
2018-Feb-15 00:29N 28°58' W 013°32'0 0.0
2018-Feb-15 00:00N 28°58' W 013°32'0 0.0
2018-Feb-14 23:30N 28°58' W 013°32'0 0.2
2018-Feb-14 23:00N 28°58' W 013°32'2 5.1
2018-Feb-14 22:30N 28°58' W 013°29'1020.0
2018-Feb-14 22:00N 29°05' W 013°21'1119.8
2018-Feb-14 21:27N 29°14' W 013°14'919.6
2018-Feb-14 21:00N 29°21' W 013°07'1119.9
2018-Feb-14 20:28N 29°29' W 012°60'1020.1
2018-Feb-14 19:59N 29°37' W 012°53'1020.1
2018-Feb-14 19:30N 29°44' W 012°46'1020.1
2018-Feb-14 19:00N 29°52' W 012°39'  
Track history (hours):
 
Tides and Currents Weather Stations Pressure Air Temp Water Temp Dewpoint Dewpoint Depression Visibility Wind Speed Wind Dir Waves Ship Positions

Albayzin

Last reported at 2018-Feb-24 18:10 UTC. Time now 2018-Feb-25 04:12 UTC.
Position N 28°09' W 014°02'.

Length 186 m; draft 6.4 m.

Type: Passenger vessel. MMSI: 210300000.

Date/timePositionNaut miles runAvg speedWind from/ knotsBaromVisibWave heightAir tempDewpointWater temp
2018-Feb-24 18:10N 28°09' W 014°02'320.5
2018-Feb-24 18:00N 28°07' W 014°06'1520.1
2018-Feb-24 17:16N 27°60' W 014°20'1119.4
2018-Feb-24 16:41N 28°01' W 014°33'319.3
2018-Feb-24 16:31N 28°02' W 014°37'1019.6
2018-Feb-24 16:00N 28°03' W 014°48'1019.6
2018-Feb-24 15:31N 28°04' W 014°59'1019.5
2018-Feb-24 15:00N 28°05' W 015°10'1019.7
2018-Feb-24 14:30N 28°06' W 015°21'5 7.3
2018-Feb-24 13:53N 28°09' W 015°25'0 0.0
2018-Feb-24 13:23N 28°09' W 015°25'0 0.0
2018-Feb-24 13:00N 28°09' W 015°25'0 0.0
2018-Feb-24 12:30N 28°09' W 015°25'0 0.0
2018-Feb-24 12:00N 28°09' W 015°25'0 0.0
2018-Feb-24 11:30N 28°09' W 015°25'0 0.0
2018-Feb-24 11:00N 28°09' W 015°25'0 0.0
2018-Feb-24 10:30N 28°09' W 015°25'0 0.0
2018-Feb-24 10:00N 28°09' W 015°25'0 0.0
2018-Feb-24 09:29N 28°09' W 015°25'0 0.0
2018-Feb-24 09:00N 28°09' W 015°25'0 0.0
2018-Feb-24 08:28N 28°09' W 015°25'0 0.1
2018-Feb-24 08:00N 28°09' W 015°25'2 4.5
2018-Feb-24 07:30N 28°07' W 015°23'917.7
2018-Feb-24 07:00N 28°16' W 015°24'816.0
2018-Feb-24 06:30N 28°23' W 015°28'612.4
2018-Feb-24 05:59N 28°29' W 015°31'612.5
2018-Feb-24 05:31N 28°34' W 015°34'611.8
2018-Feb-24 05:00N 28°34' W 015°41'612.3
2018-Feb-24 04:30N 28°29' W 015°45'612.2
2018-Feb-24 04:00N 28°24' W 015°50'612.3
2018-Feb-24 03:30N 28°19' W 015°54'611.2
2018-Feb-24 02:56N 28°19' W 016°01'612.3
2018-Feb-24 02:29N 28°22' W 016°06'10 2.5
2018-Feb-23 22:34N 28°28' W 016°15'0 6.7
2018-Feb-23 22:30N 28°29' W 016°14'612.7
2018-Feb-23 22:00N 28°30' W 016°07'5 0.2
2018-Feb-23 01:12N 28°34' W 016°05'212.3
2018-Feb-23 01:01N 28°32' W 016°05'612.1
2018-Feb-23 00:30N 28°29' W 016°11'3 6.3
2018-Feb-23 00:00N 28°29' W 016°15'0 0.0
2018-Feb-22 23:30N 28°29' W 016°15'0 0.0
2018-Feb-22 23:00N 28°29' W 016°15'0 0.0
2018-Feb-22 22:30N 28°29' W 016°15'0 0.0
2018-Feb-22 22:00N 28°29' W 016°15'0 0.0
2018-Feb-22 21:30N 28°29' W 016°15'0 0.0
2018-Feb-22 21:00N 28°29' W 016°15'0 0.0
2018-Feb-22 20:30N 28°29' W 016°15'0 0.0
2018-Feb-22 20:00N 28°29' W 016°15'0 0.0
2018-Feb-22 19:30N 28°29' W 016°15'0 0.0
2018-Feb-22 19:00N 28°29' W 016°15'0 0.0
2018-Feb-22 18:30N 28°29' W 016°15'0 0.0
2018-Feb-22 18:00N 28°29' W 016°15'0 0.0
2018-Feb-22 17:30N 28°29' W 016°15'0 0.0
2018-Feb-22 17:00N 28°29' W 016°15'1 2.0
2018-Feb-22 16:30N 28°29' W 016°14'917.4
2018-Feb-22 16:00N 28°26' W 016°04'1020.0
2018-Feb-22 15:30N 28°22' W 015°54'1019.7
2018-Feb-22 15:01N 28°19' W 015°43'1019.7
2018-Feb-22 14:30N 28°15' W 015°33'1019.6
2018-Feb-22 14:00N 28°12' W 015°22'510.0
2018-Feb-22 13:30N 28°08' W 015°25'1 2.0
2018-Feb-22 13:00N 28°09' W 015°25'0 0.0
2018-Feb-22 12:30N 28°09' W 015°25'0 0.0
2018-Feb-22 12:00N 28°09' W 015°25'0 0.0
2018-Feb-22 11:30N 28°09' W 015°25'0 0.0
2018-Feb-22 11:00N 28°09' W 015°25'0 0.0
2018-Feb-22 10:30N 28°09' W 015°25'0 0.0
2018-Feb-22 10:00N 28°09' W 015°25'0 0.0
2018-Feb-22 09:30N 28°09' W 015°25'0 0.0
2018-Feb-22 09:00N 28°09' W 015°25'0 0.0
2018-Feb-22 08:30N 28°09' W 015°25'0 0.6
2018-Feb-22 08:00N 28°08' W 015°25'3 5.5
2018-Feb-22 07:30N 28°07' W 015°22'816.1
2018-Feb-22 07:00N 28°11' W 015°14'919.1
2018-Feb-22 06:30N 28°16' W 015°05'1019.4
2018-Feb-22 06:00N 28°21' W 014°55'1019.2
2018-Feb-22 05:30N 28°26' W 014°46'1019.4
2018-Feb-22 04:58N 28°32' W 014°36'6312.4
2018-Feb-21 23:54N 28°58' W 013°32'0 0.0
2018-Feb-21 23:22N 28°58' W 013°32'0 0.0
2018-Feb-21 22:58N 28°58' W 013°32'1 2.5
2018-Feb-21 22:28N 28°57' W 013°31'716.3
2018-Feb-21 22:01N 29°01' W 013°25'  
2018-Feb-18 03:50N 29°06' W 013°21'919.3
2018-Feb-18 03:24N 28°60' W 013°27'5 6.4
2018-Feb-18 02:41N 28°58' W 013°32'0 0.0
2018-Feb-18 02:29N 28°58' W 013°32'0 0.0
2018-Feb-18 02:00N 28°58' W 013°32'0 0.0
2018-Feb-18 01:30N 28°58' W 013°32'0 0.9
2018-Feb-18 00:59N 28°58' W 013°32'714.1
2018-Feb-18 00:28N 28°51' W 013°36'49 7.8
2018-Feb-17 18:15N 28°09' W 014°03'2718.7
2018-Feb-17 16:49N 28°00' W 014°32'619.5
2018-Feb-17 16:30N 28°01' W 014°39'1019.4
2018-Feb-17 16:00N 28°02' W 014°50'1019.4
2018-Feb-17 15:31N 28°03' W 015°00'1019.6
2018-Feb-17 15:01N 28°05' W 015°11'1019.6
2018-Feb-17 14:30N 28°07' W 015°22'3 5.8
2018-Feb-17 13:58N 28°09' W 015°25'0 0.0
2018-Feb-17 13:28N 28°09' W 015°25'0 0.0
2018-Feb-17 12:58N 28°09' W 015°25'0 0.0
2018-Feb-17 12:25N 28°09' W 015°25'0 0.0
2018-Feb-17 11:58N 28°09' W 015°25'0 0.0
2018-Feb-17 11:28N 28°09' W 015°25'0 0.0
2018-Feb-17 10:57N 28°09' W 015°25'0 0.0
2018-Feb-17 10:30N 28°09' W 015°25'0 0.0
2018-Feb-17 10:00N 28°09' W 015°25'0 0.0
2018-Feb-17 09:30N 28°09' W 015°25'0 0.0
2018-Feb-17 09:00N 28°09' W 015°25'0 0.0
2018-Feb-17 08:30N 28°09' W 015°25'0 0.1
2018-Feb-17 08:00N 28°09' W 015°25'2 4.1
2018-Feb-17 07:30N 28°07' W 015°24'3 5.7
2018-Feb-17 07:00N 28°09' W 015°22'611.1
2018-Feb-17 06:30N 28°14' W 015°25'611.7
2018-Feb-17 06:00N 28°18' W 015°30'611.8
2018-Feb-17 05:30N 28°22' W 015°35'611.2
2018-Feb-17 05:00N 28°26' W 015°39'510.2
2018-Feb-17 04:29N 28°26' W 015°45'4 8.5
2018-Feb-17 04:00N 28°25' W 015°50'510.2
2018-Feb-17 03:30N 28°21' W 015°53'510.2
2018-Feb-17 02:59N 28°17' W 015°57'4 7.4
2018-Feb-17 02:30N 28°17' W 016°01'510.9
2018-Feb-17 02:00N 28°21' W 016°06'511.0
2018-Feb-17 01:30N 28°24' W 016°10'510.5
2018-Feb-17 01:00N 28°29' W 016°14'1 1.4
2018-Feb-17 00:29N 28°29' W 016°15'0 0.0
2018-Feb-16 23:56N 28°29' W 016°15'0 0.0
2018-Feb-16 23:29N 28°29' W 016°15'0 0.0
2018-Feb-16 23:00N 28°29' W 016°15'0 0.0
2018-Feb-16 22:30N 28°29' W 016°15'0 0.2
2018-Feb-16 22:00N 28°28' W 016°15'510.5
2018-Feb-16 21:30N 28°29' W 016°09'916.4
2018-Feb-16 20:58N 28°38' W 016°07'8 0.4
2018-Feb-16 02:05N 28°41' W 016°16'112.5
2018-Feb-16 02:01N 28°41' W 016°15'611.7
2018-Feb-16 01:31N 28°39' W 016°08'612.1
2018-Feb-16 01:01N 28°34' W 016°04'612.0
2018-Feb-16 00:31N 28°29' W 016°08'510.7
2018-Feb-16 00:01N 28°29' W 016°14'0 0.4
2018-Feb-15 23:29N 28°29' W 016°15'0 0.0
2018-Feb-15 22:59N 28°29' W 016°15'0 0.0
2018-Feb-15 22:29N 28°29' W 016°15'0 0.0
2018-Feb-15 21:59N 28°29' W 016°15'0 0.0
2018-Feb-15 21:29N 28°29' W 016°15'0 0.0
2018-Feb-15 20:59N 28°29' W 016°15'0 0.0
2018-Feb-15 20:29N 28°29' W 016°15'0 0.0
2018-Feb-15 19:59N 28°29' W 016°15'0 0.0
2018-Feb-15 19:30N 28°29' W 016°15'0 0.0
2018-Feb-15 19:00N 28°29' W 016°15'0 0.0
2018-Feb-15 18:30N 28°29' W 016°15'0 0.0
2018-Feb-15 18:00N 28°29' W 016°15'0 0.0
2018-Feb-15 17:30N 28°29' W 016°15'0 0.0
2018-Feb-15 17:00N 28°29' W 016°15'0 0.2
2018-Feb-15 16:30N 28°28' W 016°15'611.6
2018-Feb-15 16:01N 28°27' W 016°08'1020.1
2018-Feb-15 15:31N 28°23' W 015°58'1020.0
2018-Feb-15 15:00N 28°19' W 015°47'1019.8
2018-Feb-15 14:30N 28°16' W 015°36'1019.6
2018-Feb-15 14:00N 28°13' W 015°26'612.2
2018-Feb-15 13:30N 28°07' W 015°25'2 3.2
2018-Feb-15 13:00N 28°09' W 015°25'0 0.0
2018-Feb-15 12:30N 28°09' W 015°25'0 0.0
2018-Feb-15 11:59N 28°09' W 015°25'0 0.0
2018-Feb-15 11:30N 28°09' W 015°25'0 0.0
2018-Feb-15 11:00N 28°09' W 015°25'0 0.0
2018-Feb-15 10:27N 28°09' W 015°25'0 0.0
2018-Feb-15 10:00N 28°09' W 015°25'0 0.0
2018-Feb-15 09:30N 28°09' W 015°25'0 0.0
2018-Feb-15 09:00N 28°09' W 015°25'0 0.0
2018-Feb-15 08:30N 28°09' W 015°25'0 0.0
2018-Feb-15 08:00N 28°09' W 015°25'2 3.9
2018-Feb-15 07:30N 28°07' W 015°24'918.2
2018-Feb-15 07:00N 28°11' W 015°15'1020.2
2018-Feb-15 06:30N 28°16' W 015°05'1020.3
2018-Feb-15 06:00N 28°22' W 014°55'1020.3
2018-Feb-15 05:31N 28°27' W 014°45'1020.2
2018-Feb-15 05:00N 28°35' W 014°38'1020.2
2018-Feb-15 04:30N 28°43' W 014°31'1020.2
2018-Feb-15 04:00N 28°51' W 014°24'917.8
2018-Feb-15 03:31N 28°54' W 014°14'1020.1
2018-Feb-15 03:01N 28°53' W 014°03'1019.7
2018-Feb-15 02:30N 28°49' W 013°52'1020.6
2018-Feb-15 02:00N 28°50' W 013°41'1019.6
2018-Feb-15 01:30N 28°56' W 013°33'2 3.6
2018-Feb-15 00:58N 28°58' W 013°32'0 0.0
2018-Feb-15 00:29N 28°58' W 013°32'0 0.0
2018-Feb-15 00:00N 28°58' W 013°32'0 0.0
2018-Feb-14 23:30N 28°58' W 013°32'0 0.2
2018-Feb-14 23:00N 28°58' W 013°32'2 5.1
2018-Feb-14 22:30N 28°58' W 013°29'1020.0
2018-Feb-14 22:00N 29°05' W 013°21'1119.8
2018-Feb-14 21:27N 29°14' W 013°14'919.6
2018-Feb-14 21:00N 29°21' W 013°07'1119.9
2018-Feb-14 20:28N 29°29' W 012°60'1020.1
2018-Feb-14 19:59N 29°37' W 012°53'1020.1
2018-Feb-14 19:30N 29°44' W 012°46'1020.1
2018-Feb-14 19:00N 29°52' W 012°39'  

Dump ship's entire track history